Time;durP1;ratioP1;P1;durP2;ratioP2;P2;SDS_P1;SDS_P2;PMS_P1;PMS_P2;Temp;Humidity;BMP_temperature;BMP_pressure;BME280_temperature;BME280_humidity;BME280_pressure;Samples;Min_cycle;Max_cycle;Signal;HPM_P1;HPM_P2
2023/10/06 00:01:48;;;;;;;9.73;2.67;;;11.60;99.90;;;;;;5072769;28;20081;-82
2023/10/06 00:04:15;;;;;;;9.75;3.08;;;11.50;99.90;;;;;;5073395;28;20085;-81
2023/10/06 00:06:42;;;;;;;7.10;3.13;;;11.40;99.90;;;;;;5074002;28;20064;-81
2023/10/06 00:09:28;;;;;;;6.05;2.65;;;11.50;99.90;;;;;;5072332;28;20055;-81
2023/10/06 00:11:55;;;;;;;5.97;2.22;;;11.50;99.90;;;;;;5072091;28;20021;-80
2023/10/06 00:14:39;;;;;;;8.35;2.63;;;11.50;99.90;;;;;;5089557;28;20495;-79
2023/10/06 00:17:17;;;;;;;7.43;2.72;;;11.60;99.90;;;;;;5072151;28;20033;-80
2023/10/06 00:19:51;;;;;;;5.22;2.50;;;11.50;99.90;;;;;;5072923;28;20025;-79
2023/10/06 00:24:50;;;;;;;6.68;2.83;;;11.30;99.90;;;;;;5073627;28;20368;-79
2023/10/06 00:27:21;;;;;;;6.50;2.60;;;11.40;99.90;;;;;;5072299;28;20055;-80
2023/10/06 00:29:48;;;;;;;5.70;2.53;;;11.40;99.90;;;;;;5072782;28;20029;-80
2023/10/06 00:32:26;;;;;;;8.75;2.53;;;11.50;99.90;;;;;;5071792;28;20374;-79
2023/10/06 00:35:14;;;;;;;6.43;2.70;;;11.50;99.90;;;;;;5073884;28;20054;-85
2023/10/06 00:37:41;;;;;;;8.48;2.92;;;11.50;99.90;;;;;;5073923;28;20021;-79
2023/10/06 00:40:11;;;;;;;9.63;2.85;;;11.50;99.90;;;;;;5072828;28;20036;-80
2023/10/06 00:42:38;;;;;;;9.55;3.28;;;11.40;99.90;;;;;;5072289;28;20035;-80
2023/10/06 00:45:09;;;;;;;8.27;2.60;;;11.40;99.90;;;;;;5072095;28;20032;-79
2023/10/06 00:47:41;;;;;;;6.53;2.90;;;11.40;99.90;;;;;;5073561;28;20059;-79
2023/10/06 00:50:11;;;;;;;5.95;2.60;;;11.30;99.90;;;;;;5072965;28;20051;-79
2023/10/06 00:52:39;;;;;;;8.70;2.88;;;11.30;99.90;;;;;;5073478;28;20501;-79
2023/10/06 00:55:10;;;;;;;6.38;2.70;;;11.30;99.90;;;;;;5072020;28;20025;-79
2023/10/06 00:57:36;;;;;;;9.23;2.63;;;11.30;99.90;;;;;;5072619;28;20082;-79
2023/10/06 01:00:06;;;;;;;9.20;2.72;;;11.20;99.90;;;;;;5072105;28;20040;-79
2023/10/06 01:02:33;;;;;;;7.70;2.47;;;11.20;99.90;;;;;;5076432;28;20465;-79
2023/10/06 01:05:00;;;;;;;7.45;2.40;;;11.10;99.90;;;;;;5093057;28;20177;-80
2023/10/06 01:07:25;;;;;;;7.60;2.60;;;11.00;99.90;;;;;;5076789;28;20423;-79
2023/10/06 01:10:06;;;;;;;12.25;2.65;;;11.00;99.90;;;;;;5076442;28;20107;-79
2023/10/06 01:12:32;;;;;;;7.15;2.45;;;11.10;99.90;;;;;;5093446;28;20462;-80
2023/10/06 01:15:19;;;;;;;5.72;2.60;;;11.10;99.90;;;;;;5076729;28;20021;-80
2023/10/06 01:17:44;;;;;;;6.00;2.40;;;11.10;99.90;;;;;;5076583;28;20040;-79
2023/10/06 01:20:12;;;;;;;5.07;2.17;;;11.10;99.90;;;;;;5075650;28;20028;-80
2023/10/06 01:22:44;;;;;;;7.25;2.63;;;11.10;99.90;;;;;;5077219;28;20029;-79
2023/10/06 01:25:20;;;;;;;7.45;2.50;;;11.00;99.90;;;;;;5076000;28;20025;-79
2023/10/06 01:27:46;;;;;;;7.22;2.70;;;11.00;99.90;;;;;;5092926;28;20120;-79
2023/10/06 01:30:18;;;;;;;5.82;2.42;;;11.00;99.90;;;;;;5075298;28;20056;-79
2023/10/06 01:32:50;;;;;;;;;;;10.90;99.90;;;;;;5076567;28;20082;-80
2023/10/06 01:35:23;;;;;;;6.68;2.80;;;10.90;99.90;;;;;;5074104;28;19912;-80
2023/10/06 01:37:58;;;;;;;6.97;2.53;;;10.90;99.90;;;;;;5075757;28;20033;-80
2023/10/06 01:40:43;;;;;;;5.93;2.33;;;10.90;99.90;;;;;;5075881;28;20123;-80
2023/10/06 01:43:09;;;;;;;6.75;2.45;;;10.90;99.90;;;;;;5074123;28;20035;-80
2023/10/06 01:45:36;;;;;;;6.10;2.47;;;10.90;99.90;;;;;;5074724;28;20028;-80
2023/10/06 01:50:41;;;;;;;7.03;2.22;;;10.90;99.90;;;;;;5075888;28;20487;-80
2023/10/06 01:53:16;;;;;;;5.57;2.20;;;10.90;99.90;;;;;;5074103;28;20028;-80
2023/10/06 01:55:42;;;;;;;10.75;2.50;;;10.90;99.90;;;;;;5074761;28;20042;-80
2023/10/06 01:58:11;;;;;;;7.82;2.20;;;10.80;99.90;;;;;;5090620;28;20025;-79
2023/10/06 02:00:37;;;;;;;6.97;2.90;;;10.70;99.90;;;;;;5074605;28;20043;-81
2023/10/06 02:03:04;;;;;;;6.82;2.15;;;10.60;99.90;;;;;;5074704;28;20027;-81
2023/10/06 02:05:30;;;;;;;6.00;2.40;;;10.60;99.90;;;;;;5091439;28;20137;-81
2023/10/06 02:08:00;;;;;;;5.15;2.33;;;10.70;99.90;;;;;;5074586;28;20501;-80
2023/10/06 02:10:29;;;;;;;5.22;2.40;;;10.70;99.90;;;;;;5074510;28;20033;-81
2023/10/06 02:12:58;;;;;;;5.45;2.30;;;10.60;99.90;;;;;;5090934;28;20100;-83
2023/10/06 02:15:24;;;;;;;5.38;2.30;;;10.50;99.90;;;;;;5073861;28;20393;-81
2023/10/06 02:17:50;;;;;;;6.18;2.30;;;10.50;99.90;;;;;;5090663;28;20020;-81
2023/10/06 02:20:35;;;;;;;8.77;2.17;;;10.50;99.90;;;;;;5073584;28;20025;-81
2023/10/06 02:23:01;;;;;;;8.10;2.25;;;10.50;99.90;;;;;;5073823;28;20040;-85
2023/10/06 02:25:27;;;;;;;5.15;2.20;;;10.50;99.90;;;;;;5075290;28;20029;-82
2023/10/06 02:27:53;;;;;;;7.25;1.95;;;10.50;99.90;;;;;;5074677;28;20021;-82
2023/10/06 02:30:33;;;;;;;6.40;2.65;;;10.50;99.90;;;;;;5073739;28;20024;-82
2023/10/06 02:35:46;;;;;;;5.30;2.42;;;10.40;99.90;;;;;;5111881;27;20404;-81
2023/10/06 02:38:11;;;;;;;11.32;2.47;;;10.40;99.90;;;;;;5110674;28;20131;-82
2023/10/06 02:40:47;;;;;;;7.18;2.65;;;10.40;99.90;;;;;;5111285;28;20111;-82
2023/10/06 02:43:13;;;;;;;6.85;2.35;;;10.50;99.90;;;;;;5110401;28;20065;-82
2023/10/06 02:45:42;;;;;;;4.75;2.28;;;10.50;99.90;;;;;;5111803;28;20024;-82
2023/10/06 02:48:15;;;;;;;5.68;2.67;;;10.50;99.90;;;;;;5111167;28;20077;-81
2023/10/06 02:50:45;;;;;;;6.00;2.50;;;10.40;99.90;;;;;;5111785;28;20024;-79
2023/10/06 02:53:14;;;;;;;3.85;1.80;;;10.30;99.90;;;;;;5110779;28;20042;-79
2023/10/06 02:55:44;;;;;;;8.15;2.60;;;10.30;99.90;;;;;;5110267;28;20032;-79
2023/10/06 02:58:31;;;;;;;6.43;2.25;;;10.30;99.90;;;;;;5110126;28;20024;-81
2023/10/06 03:00:57;;;;;;;5.30;2.53;;;10.30;99.90;;;;;;5110537;28;20120;-81
2023/10/06 03:03:33;;;;;;;7.50;2.22;;;10.20;99.90;;;;;;5109998;28;20069;-81
2023/10/06 03:06:06;;;;;;;6.00;2.58;;;10.10;99.90;;;;;;5109933;28;20032;-81
2023/10/06 03:08:33;;;;;;;9.25;2.80;;;10.20;99.90;;;;;;5110611;28;20024;-81
2023/10/06 03:11:00;;;;;;;4.43;2.47;;;10.20;99.90;;;;;;5110276;28;20126;-80
2023/10/06 03:13:32;;;;;;;5.65;2.20;;;10.10;99.90;;;;;;5109498;28;20028;-82
2023/10/06 03:15:59;;;;;;;4.20;2.53;;;10.10;99.90;;;;;;5110992;28;20020;-83
2023/10/06 03:18:25;;;;;;;5.28;2.45;;;10.00;99.90;;;;;;5110245;28;20024;-83
2023/10/06 03:20:57;;;;;;;7.13;2.38;;;10.00;99.90;;;;;;5110990;28;20063;-83
2023/10/06 03:23:38;;;;;;;7.18;2.40;;;10.00;99.90;;;;;;5109537;28;20559;-80
2023/10/06 03:26:04;;;;;;;5.75;2.42;;;10.00;99.90;;;;;;5109630;28;20383;-85
2023/10/06 03:28:36;;;;;;;7.22;2.50;;;10.00;99.90;;;;;;5110116;28;20028;-81
2023/10/06 03:31:21;;;;;;;4.78;2.15;;;9.90;99.90;;;;;;5109506;28;20027;-86
2023/10/06 03:33:48;;;;;;;5.18;2.25;;;10.00;99.90;;;;;;5109133;28;20052;-80
2023/10/06 03:36:16;;;;;;;4.57;2.10;;;9.90;99.90;;;;;;5109346;28;20024;-81
2023/10/06 03:38:57;;;;;;;3.70;1.77;;;9.80;99.90;;;;;;5110736;28;20024;-81
2023/10/06 03:41:31;;;;;;;5.13;2.40;;;9.90;99.90;;;;;;5109015;28;20034;-80
2023/10/06 03:44:00;;;;;;;5.45;2.10;;;9.80;99.90;;;;;;5110003;28;20105;-81
2023/10/06 03:46:31;;;;;;;7.65;2.03;;;9.80;99.90;;;;;;5098556;28;20127;-81
2023/10/06 03:49:03;;;;;;;4.33;2.00;;;9.80;99.90;;;;;;5096233;28;20031;-82
2023/10/06 03:51:29;;;;;;;6.15;1.90;;;9.80;99.90;;;;;;5095385;28;20035;-80
2023/10/06 03:53:56;;;;;;;5.45;2.10;;;9.80;99.90;;;;;;5095479;28;20035;-81
2023/10/06 03:56:22;;;;;;;6.85;2.22;;;9.70;99.90;;;;;;5094766;28;20081;-81
2023/10/06 03:58:48;;;;;;;4.22;1.85;;;9.60;99.90;;;;;;5096483;28;20107;-81
2023/10/06 04:01:26;;;;;;;8.32;2.15;;;9.70;99.90;;;;;;5094590;28;20024;-81
2023/10/06 04:03:58;;;;;;;6.15;2.40;;;9.70;99.90;;;;;;5095225;28;20193;-81
2023/10/06 04:06:24;;;;;;;;;;;9.70;99.90;;;;;;5094960;28;20575;-81
2023/10/06 04:08:52;;;;;;;5.57;2.30;;;9.50;99.90;;;;;;5096343;28;20352;-81
2023/10/06 04:11:18;;;;;;;4.60;2.25;;;9.40;99.90;;;;;;5095007;28;20024;-82
2023/10/06 04:13:45;;;;;;;6.35;2.28;;;9.30;99.90;;;;;;5095210;28;20491;-82
2023/10/06 04:16:14;;;;;;;5.35;1.90;;;9.20;99.90;;;;;;5095802;28;20028;-82
2023/10/06 04:18:40;;;;;;;4.55;2.13;;;9.20;99.90;;;;;;5095204;28;20020;-82
2023/10/06 04:21:11;;;;;;;4.78;1.85;;;9.20;99.90;;;;;;5094939;28;20024;-85
2023/10/06 04:23:41;;;;;;;3.08;2.20;;;9.30;99.90;;;;;;5096090;28;20035;-81
2023/10/06 04:26:08;;;;;;;4.80;2.30;;;9.40;99.90;;;;;;5094568;28;20034;-87
2023/10/06 04:28:33;;;;;;;12.23;2.90;;;9.40;99.90;;;;;;5095563;28;20048;-80
2023/10/06 04:31:01;;;;;;;8.35;2.72;;;9.50;99.90;;;;;;5095949;28;20034;-80
2023/10/06 04:33:28;;;;;;;6.32;2.53;;;9.40;99.90;;;;;;5093837;28;20047;-80
2023/10/06 04:36:11;;;;;;;18.50;2.45;;;9.30;99.90;;;;;;5095670;28;20045;-80
2023/10/06 04:38:38;;;;;;;25.65;3.10;;;9.20;99.90;;;;;;5095642;28;20396;-80
2023/10/06 04:41:08;;;;;;;9.75;2.53;;;9.10;99.90;;;;;;5094610;28;20031;-80
2023/10/06 04:43:35;;;;;;;4.00;2.25;;;8.90;99.90;;;;;;5094446;28;20035;-81
2023/10/06 04:46:00;;;;;;;5.18;2.53;;;9.00;99.90;;;;;;5094606;28;20461;-83
2023/10/06 04:48:26;;;;;;;9.50;3.10;;;9.10;99.90;;;;;;5095071;28;20031;-82
2023/10/06 04:50:52;;;;;;;18.17;3.38;;;9.20;99.90;;;;;;5095881;28;20460;-82
2023/10/06 04:53:17;;;;;;;7.68;2.67;;;9.10;99.90;;;;;;5093971;28;20028;-82
2023/10/06 04:55:43;;;;;;;5.95;2.83;;;9.10;99.90;;;;;;5094693;28;20123;-81
2023/10/06 04:58:13;;;;;;;6.22;2.83;;;9.20;99.90;;;;;;5094388;28;20024;-84
2023/10/06 05:00:42;;;;;;;6.70;3.15;;;9.30;99.90;;;;;;5095408;28;20094;-80
2023/10/06 05:03:10;;;;;;;5.63;2.78;;;9.40;99.90;;;;;;5093975;28;20115;-84
2023/10/06 05:05:40;;;;;;;5.35;2.63;;;9.50;99.90;;;;;;5094061;28;20027;-82
2023/10/06 05:08:09;;;;;;;7.00;2.92;;;9.60;99.90;;;;;;5095057;28;20047;-81
2023/10/06 05:10:36;;;;;;;6.72;2.90;;;9.70;99.90;;;;;;5093600;28;20024;-82
2023/10/06 05:13:05;;;;;;;20.27;3.22;;;9.80;99.90;;;;;;5094807;28;20025;-81
2023/10/06 05:15:31;;;;;;;8.55;3.10;;;9.80;99.90;;;;;;5093170;28;20501;-81
2023/10/06 05:17:58;;;;;;;10.95;3.15;;;9.70;99.90;;;;;;5093927;28;20119;-81
2023/10/06 05:20:29;;;;;;;9.30;3.38;;;9.70;99.90;;;;;;5094160;28;20024;-81
2023/10/06 05:23:07;;;;;;;9.60;3.10;;;9.60;99.90;;;;;;5093571;28;20047;-81
2023/10/06 05:25:44;;;;;;;7.70;3.20;;;9.70;99.90;;;;;;5092967;28;20035;-80
2023/10/06 05:28:16;;;;;;;8.70;3.08;;;9.70;99.90;;;;;;5093012;28;20028;-85
2023/10/06 05:30:43;;;;;;;10.60;3.55;;;9.80;99.90;;;;;;5093366;28;20028;-80
2023/10/06 05:33:09;;;;;;;10.05;4.22;;;9.80;99.90;;;;;;5092728;28;20039;-86
2023/10/06 05:35:36;;;;;;;14.25;4.28;;;9.80;99.90;;;;;;5093209;28;20044;-81
2023/10/06 05:38:12;;;;;;;12.48;4.60;;;9.80;99.90;;;;;;5093572;28;20027;-81
2023/10/06 05:40:40;;;;;;;13.57;5.18;;;9.90;99.90;;;;;;5094524;28;20026;-82
2023/10/06 05:43:11;;;;;;;10.85;4.72;;;9.90;99.90;;;;;;5093422;28;20032;-81
2023/10/06 05:45:40;;;;;;;14.45;4.85;;;10.00;99.90;;;;;;5093754;28;20039;-81
2023/10/06 05:48:12;;;;;;;13.85;5.00;;;10.10;99.90;;;;;;5093638;28;20024;-82
2023/10/06 05:50:40;;;;;;;15.00;5.22;;;10.10;99.90;;;;;;5093408;28;20024;-81
2023/10/06 05:53:08;;;;;;;14.60;4.97;;;10.10;99.90;;;;;;5093517;28;20024;-81
2023/10/06 05:55:35;;;;;;;11.00;4.80;;;10.00;99.90;;;;;;5092536;28;20036;-81
2023/10/06 05:58:03;;;;;;;18.08;5.22;;;10.00;99.90;;;;;;5093346;28;20028;-80
2023/10/06 06:00:33;;;;;;;17.23;5.30;;;10.10;99.90;;;;;;5092716;28;20027;-80
2023/10/06 06:03:10;;;;;;;13.25;5.03;;;10.20;99.90;;;;;;5093436;28;20028;-81
2023/10/06 06:05:40;;;;;;;12.65;4.85;;;10.20;99.90;;;;;;5093891;28;20028;-81
2023/10/06 06:08:08;;;;;;;12.68;4.72;;;10.20;99.90;;;;;;5093188;28;20081;-81
2023/10/06 06:10:35;;;;;;;23.48;5.70;;;10.20;99.90;;;;;;5092873;28;20020;-80
2023/10/06 06:13:00;;;;;;;28.08;5.00;;;10.30;99.90;;;;;;5092744;28;20032;-80
2023/10/06 06:15:26;;;;;;;15.13;5.93;;;10.30;99.90;;;;;;5092595;28;20050;-80
2023/10/06 06:17:53;;;;;;;15.45;4.75;;;10.30;99.90;;;;;;5092673;28;20465;-80
2023/10/06 06:20:21;;;;;;;15.40;4.53;;;10.30;99.90;;;;;;5092079;28;20027;-79
2023/10/06 06:22:50;;;;;;;12.90;4.63;;;10.30;99.90;;;;;;5092372;28;20078;-79
2023/10/06 06:25:16;;;;;;;13.80;4.93;;;10.30;99.90;;;;;;5091727;28;20074;-80
2023/10/06 06:27:42;;;;;;;11.20;4.75;;;10.30;99.90;;;;;;5092566;28;20376;-80
2023/10/06 06:30:08;;;;;;;13.15;4.35;;;10.30;99.90;;;;;;5091428;28;20020;-80
2023/10/06 06:32:35;;;;;;;10.25;3.83;;;10.30;99.90;;;;;;5081130;28;20051;-78
2023/10/06 06:35:01;;;;;;;10.88;4.18;;;10.30;99.90;;;;;;5091180;28;20044;-79
2023/10/06 06:37:27;;;;;;;8.82;3.83;;;10.40;99.90;;;;;;5090693;28;20038;-80
2023/10/06 06:39:53;;;;;;;9.35;3.70;;;10.40;99.90;;;;;;5087188;28;20021;-80
2023/10/06 06:42:19;;;;;;;12.57;3.60;;;10.40;99.90;;;;;;5091455;28;20076;-80
2023/10/06 06:44:47;;;;;;;9.30;3.47;;;10.40;99.90;;;;;;5089388;28;20020;-80
2023/10/06 06:47:16;;;;;;;10.52;4.43;;;10.40;99.90;;;;;;5089444;28;20024;-85
2023/10/06 06:49:43;;;;;;;7.05;3.80;;;10.40;99.90;;;;;;5090723;28;20032;-79
2023/10/06 06:52:09;;;;;;;9.77;4.22;;;10.40;99.90;;;;;;5091711;28;20027;-80
2023/10/06 06:54:37;;;;;;;10.73;4.20;;;10.50;99.90;;;;;;5090672;28;20063;-80
2023/10/06 06:57:03;;;;;;;12.18;4.70;;;10.60;99.90;;;;;;5090750;28;20028;-80
2023/10/06 06:59:30;;;;;;;11.73;4.60;;;10.60;99.90;;;;;;5081177;28;20055;-82
2023/10/06 07:01:58;;;;;;;12.45;4.28;;;10.60;99.90;;;;;;5083625;28;20104;-82
2023/10/06 07:04:26;;;;;;;9.68;4.18;;;10.70;99.90;;;;;;5075477;28;20032;-81
2023/10/06 07:06:52;;;;;;;16.80;3.67;;;10.70;99.90;;;;;;5073308;28;20025;-79
2023/10/06 07:09:18;;;;;;;10.43;3.80;;;10.60;99.90;;;;;;5072416;28;20078;-81
2023/10/06 07:11:44;;;;;;;8.77;3.65;;;10.60;99.90;;;;;;5081650;28;20399;-79
2023/10/06 07:14:10;;;;;;;9.27;4.10;;;10.60;99.90;;;;;;5088007;28;20032;-80
2023/10/06 07:16:36;;;;;;;10.82;4.50;;;10.60;99.90;;;;;;5089659;28;20385;-80
2023/10/06 07:19:03;;;;;;;8.90;3.75;;;10.60;99.90;;;;;;5093857;28;20081;-81
2023/10/06 07:21:30;;;;;;;9.10;4.10;;;10.60;99.90;;;;;;5094556;28;20036;-79
2023/10/06 07:23:58;;;;;;;12.25;5.05;;;10.70;99.90;;;;;;5096987;28;20027;-79
2023/10/06 07:26:23;;;;;;;11.60;4.30;;;10.80;99.90;;;;;;5096905;28;20024;-80
2023/10/06 07:28:52;;;;;;;11.02;4.07;;;10.80;99.90;;;;;;5096908;28;20031;-79
2023/10/06 07:31:19;;;;;;;10.05;4.22;;;10.90;99.90;;;;;;5096104;28;20024;-86
2023/10/06 07:33:47;;;;;;;9.75;4.32;;;10.90;99.90;;;;;;5096609;28;20051;-79
2023/10/06 07:36:14;;;;;;;9.15;4.00;;;10.90;99.90;;;;;;5088681;28;20052;-79
2023/10/06 07:38:43;;;;;;;10.00;3.88;;;10.90;99.90;;;;;;5076451;28;20024;-79
2023/10/06 07:41:16;;;;;;;8.80;4.85;;;10.90;99.90;;;;;;5085101;28;20020;-82
2023/10/06 07:43:41;;;;;;;9.68;4.20;;;11.00;99.90;;;;;;5096889;28;20027;-83
2023/10/06 07:46:07;;;;;;;8.98;4.63;;;11.10;99.90;;;;;;5095848;28;20024;-88
2023/10/06 07:48:36;;;;;;;12.77;5.40;;;11.10;99.90;;;;;;5104505;28;20107;-79
2023/10/06 07:51:08;;;;;;;8.32;4.13;;;11.20;99.90;;;;;;5110137;28;20076;-79
2023/10/06 07:53:35;;;;;;;12.35;4.20;;;11.30;99.90;;;;;;5097552;28;20024;-79
2023/10/06 07:56:07;;;;;;;11.00;4.40;;;11.30;99.90;;;;;;5095271;28;20086;-79
2023/10/06 07:58:37;;;;;;;8.65;3.83;;;11.30;99.90;;;;;;5104797;28;20533;-79
2023/10/06 08:01:08;;;;;;;11.82;3.92;;;11.30;99.90;;;;;;5115814;28;20027;-79
2023/10/06 08:03:37;;;;;;;9.32;3.70;;;11.40;99.90;;;;;;5097661;28;20032;-78
2023/10/06 08:06:04;;;;;;;11.57;3.97;;;11.40;99.90;;;;;;5096312;28;20028;-83
2023/10/06 08:08:29;;;;;;;9.55;3.80;;;11.40;99.90;;;;;;5105284;28;20027;-82
2023/10/06 08:10:56;;;;;;;7.88;3.35;;;11.50;99.90;;;;;;5107422;28;20035;-82
2023/10/06 08:13:22;;;;;;;6.55;3.25;;;11.60;99.90;;;;;;5077793;28;20457;-82
2023/10/06 08:15:48;;;;;;;9.35;3.30;;;11.60;99.90;;;;;;5112210;28;20038;-83
2023/10/06 08:18:15;;;;;;;10.32;3.78;;;11.70;99.90;;;;;;5095633;28;20099;-79
2023/10/06 08:20:40;;;;;;;10.82;4.00;;;11.60;99.90;;;;;;5101037;28;20040;-81
2023/10/06 08:23:11;;;;;;;8.27;3.42;;;11.70;99.90;;;;;;5100107;28;20035;-79
2023/10/06 08:25:37;;;;;;;8.68;2.78;;;11.70;99.90;;;;;;5082112;28;20036;-79
2023/10/06 08:28:05;;;;;;;10.93;4.05;;;11.70;99.90;;;;;;5086690;28;20176;-79
2023/10/06 08:30:32;;;;;;;8.68;3.90;;;11.80;99.90;;;;;;5079135;28;20024;-78
2023/10/06 08:32:59;;;;;;;9.60;3.67;;;11.90;99.90;;;;;;5091141;28;20020;-78
2023/10/06 08:35:26;;;;;;;8.05;3.58;;;11.90;99.90;;;;;;5096090;28;20055;-86
2023/10/06 08:37:52;;;;;;;9.95;3.85;;;12.00;99.90;;;;;;5095210;28;20023;-78
2023/10/06 08:40:22;;;;;;;9.30;4.05;;;12.00;99.90;;;;;;5091466;28;20032;-80
2023/10/06 08:42:56;;;;;;;12.23;4.82;;;12.10;99.90;;;;;;5091177;28;20024;-79
2023/10/06 08:45:26;;;;;;;9.35;3.63;;;12.10;99.90;;;;;;5094857;28;20040;-81
2023/10/06 08:47:59;;;;;;;9.48;4.10;;;12.20;99.90;;;;;;5091653;28;20081;-77
2023/10/06 08:50:29;;;;;;;8.35;4.07;;;12.30;99.90;;;;;;5090717;28;20035;-80
2023/10/06 08:52:57;;;;;;;7.78;3.90;;;12.40;99.90;;;;;;5090719;28;20028;-79
2023/10/06 08:55:24;;;;;;;11.23;4.30;;;12.40;99.90;;;;;;5110417;28;20032;-81
2023/10/06 08:57:52;;;;;;;12.25;4.10;;;12.50;99.90;;;;;;5098176;28;20020;-78
2023/10/06 09:00:19;;;;;;;11.65;4.38;;;12.50;99.90;;;;;;5105620;28;20028;-83
2023/10/06 09:02:46;;;;;;;9.90;4.25;;;12.60;99.90;;;;;;5084459;28;20028;-80
2023/10/06 09:05:13;;;;;;;9.52;4.40;;;12.70;99.90;;;;;;5073995;28;20036;-81
2023/10/06 09:07:59;;;;;;;8.10;3.92;;;12.80;99.90;;;;;;5073478;28;20024;-81
2023/10/06 09:10:27;;;;;;;11.25;3.95;;;12.80;99.90;;;;;;5092214;28;20031;-81
2023/10/06 09:13:07;;;;;;;9.27;3.90;;;12.80;99.90;;;;;;5095017;28;20119;-82
2023/10/06 09:15:37;;;;;;;13.90;4.45;;;12.90;99.90;;;;;;5089674;28;20036;-79
2023/10/06 09:18:20;;;;;;;12.85;4.57;;;12.90;99.90;;;;;;5094096;28;20029;-80
2023/10/06 09:20:49;;;;;;;10.27;4.45;;;12.90;99.90;;;;;;5085777;28;20035;-81
2023/10/06 09:23:36;;;;;;;12.27;4.50;;;12.90;99.90;;;;;;5090279;28;20084;-82
2023/10/06 09:26:04;;;;;;;13.20;4.55;;;13.00;99.90;;;;;;5088838;28;20035;-81
2023/10/06 09:28:33;;;;;;;12.65;4.15;;;13.00;99.90;;;;;;5105538;28;20021;-81
2023/10/06 09:31:02;;;;;;;9.98;4.20;;;13.10;99.90;;;;;;5109235;28;20030;-81
2023/10/06 09:33:29;;;;;;;11.38;4.28;;;13.10;99.90;;;;;;5098319;28;20381;-81
2023/10/06 09:36:16;;;;;;;10.60;5.03;;;13.10;99.90;;;;;;5110240;28;20099;-79
2023/10/06 09:38:42;;;;;;;10.98;4.45;;;13.20;99.90;;;;;;5088832;28;20481;-81
2023/10/06 09:41:09;;;;;;;10.35;3.95;;;13.20;99.90;;;;;;5093672;28;20073;-82
2023/10/06 09:43:39;;;;;;;11.55;4.63;;;13.30;99.90;;;;;;5104762;28;20034;-82
2023/10/06 09:46:19;;;;;;;12.90;4.47;;;13.40;99.90;;;;;;5103304;28;20026;-83
2023/10/06 09:48:50;;;;;;;10.73;4.28;;;13.40;99.90;;;;;;5088191;28;20088;-82
2023/10/06 09:51:19;;;;;;;8.65;4.30;;;13.50;99.90;;;;;;5074605;28;20029;-80
2023/10/06 09:53:47;;;;;;;13.35;4.72;;;13.50;99.90;;;;;;5109417;28;20032;-81
2023/10/06 09:56:13;;;;;;;11.52;3.88;;;13.60;99.90;;;;;;5088471;28;20022;-80
2023/10/06 09:58:42;;;;;;;10.52;4.40;;;13.60;99.90;;;;;;5103676;28;20020;-79
2023/10/06 10:01:10;;;;;;;8.88;4.45;;;13.70;99.90;;;;;;5104090;28;20052;-79
2023/10/06 10:03:37;;;;;;;12.02;4.28;;;13.80;99.90;;;;;;5111693;28;20031;-80
2023/10/06 10:06:04;;;;;;;10.00;4.13;;;13.80;99.90;;;;;;5099404;28;20456;-82
2023/10/06 10:08:34;;;;;;;9.75;4.35;;;13.90;99.90;;;;;;5098049;28;20031;-82
2023/10/06 10:11:14;;;;;;;14.07;4.43;;;13.90;99.90;;;;;;5100529;28;20035;-81
2023/10/06 10:14:18;;;;;;;10.85;4.75;;;14.00;99.90;;;;;;5095982;28;20028;-79
2023/10/06 10:17:02;;;;;;;14.32;3.95;;;13.90;99.90;;;;;;5090217;28;20115;-81
2023/10/06 10:19:28;;;;;;;12.77;4.20;;;14.00;99.90;;;;;;5107580;28;20418;-82
2023/10/06 10:21:55;;;;;;;12.57;4.28;;;14.10;99.90;;;;;;5093887;28;20051;-82
2023/10/06 10:24:21;;;;;;;13.75;4.55;;;14.10;99.90;;;;;;5093389;28;20036;-82
2023/10/06 10:26:50;;;;;;;12.98;4.32;;;14.20;99.90;;;;;;5105331;28;20035;-81
2023/10/06 10:29:16;;;;;;;11.00;4.28;;;14.20;99.90;;;;;;5097623;28;20053;-82
2023/10/06 10:31:51;;;;;;;12.00;4.30;;;14.20;99.90;;;;;;5110302;28;20078;-81
2023/10/06 10:34:23;;;;;;;8.63;3.97;;;14.30;99.90;;;;;;5092628;28;20052;-86
2023/10/06 10:37:05;;;;;;;11.15;3.53;;;14.30;99.90;;;;;;5105190;28;20042;-82
2023/10/06 10:39:51;;;;;;;8.93;3.40;;;14.40;99.90;;;;;;5113117;28;20035;-83
2023/10/06 10:42:21;;;;;;;11.02;3.45;;;14.40;99.90;;;;;;5108648;28;20027;-86
2023/10/06 10:44:48;;;;;;;23.40;9.55;;;14.50;99.90;;;;;;5101167;28;20085;-81
2023/10/06 10:47:20;;;;;;;7.32;3.40;;;14.50;99.90;;;;;;5098943;28;20024;-81
2023/10/06 10:49:47;;;;;;;6.88;3.25;;;14.60;99.90;;;;;;5109431;28;20027;-81
2023/10/06 10:52:14;;;;;;;10.18;3.47;;;14.70;99.90;;;;;;5092537;28;20050;-80
2023/10/06 10:54:42;;;;;;;11.48;3.60;;;14.80;99.90;;;;;;5092306;28;20028;-81
2023/10/06 10:57:11;;;;;;;9.77;3.95;;;14.80;99.90;;;;;;5096054;28;20023;-80
2023/10/06 11:02:48;;;;;;;12.10;3.85;;;14.90;99.90;;;;;;5107194;28;20024;-81
2023/10/06 11:05:18;;;;;;;8.43;3.33;;;14.90;99.90;;;;;;5100570;28;20044;-80
2023/10/06 11:08:14;;;;;;;9.88;3.70;;;15.00;99.90;;;;;;5100995;28;20027;-80
2023/10/06 11:10:39;;;;;;;10.93;3.78;;;15.10;99.90;;;;;;5091904;28;20031;-81
2023/10/06 11:13:19;;;;;;;19.65;3.15;;;15.10;99.90;;;;;;5110662;28;20173;-80
2023/10/06 11:15:46;;;;;;;9.95;2.70;;;15.20;99.90;;;;;;5098965;28;20056;-88
2023/10/06 11:18:13;;;;;;;5.75;2.75;;;15.30;99.90;;;;;;5105745;28;20388;-87
2023/10/06 11:20:41;;;;;;;6.38;2.58;;;15.50;99.90;;;;;;5106412;28;20020;-83
2023/10/06 11:23:08;;;;;;;7.97;2.50;;;15.40;99.90;;;;;;5111168;28;20019;-83
2023/10/06 11:25:38;;;;;;;7.28;2.53;;;15.50;99.90;;;;;;5098685;28;20020;-82
2023/10/06 11:28:12;;;;;;;6.85;2.35;;;15.50;99.90;;;;;;5094384;28;20024;-82
2023/10/06 11:30:40;;;;;;;9.25;2.35;;;15.60;99.90;;;;;;5105191;28;20468;-81
2023/10/06 11:33:08;;;;;;;6.95;1.80;;;15.60;99.90;;;;;;5103991;27;20028;-82
2023/10/06 11:35:35;;;;;;;8.88;2.22;;;15.70;99.90;;;;;;5113804;28;20472;-82
2023/10/06 11:38:11;;;;;;;6.07;2.10;;;15.70;99.90;;;;;;5101482;28;20460;-83
2023/10/06 11:40:37;;;;;;;4.97;1.92;;;15.70;99.90;;;;;;5106702;28;20141;-82
2023/10/06 11:43:18;;;;;;;6.38;2.00;;;15.80;99.90;;;;;;5096100;28;20050;-83
2023/10/06 11:45:44;;;;;;;7.97;2.33;;;15.90;99.90;;;;;;5098122;28;20054;-85
2023/10/06 11:48:24;;;;;;;27.15;12.40;;;16.00;99.90;;;;;;5101435;28;20023;-84
2023/10/06 11:51:00;;;;;;;11.40;5.00;;;16.10;99.90;;;;;;5111138;28;20031;-84
2023/10/06 11:53:26;;;;;;;7.55;2.38;;;16.20;99.90;;;;;;5098608;28;20028;-82
2023/10/06 11:55:53;;;;;;;6.15;2.00;;;16.30;99.90;;;;;;5110879;28;20027;-83
2023/10/06 11:58:36;;;;;;;5.70;2.20;;;16.50;99.90;;;;;;5104574;28;20029;-83
2023/10/06 12:01:03;;;;;;;5.18;1.55;;;16.70;99.90;;;;;;5089991;28;20054;-82
2023/10/06 12:03:42;;;;;;;4.45;1.45;;;16.90;99.90;;;;;;5096605;28;20052;-82
2023/10/06 12:06:12;;;;;;;9.18;2.00;;;17.00;99.90;;;;;;5109008;28;20028;-83
2023/10/06 12:08:56;;;;;;;3.55;1.40;;;17.20;99.90;;;;;;5105870;28;20063;-84
2023/10/06 12:11:22;;;;;;;3.95;1.23;;;17.30;99.20;;;;;;5098081;28;20102;-83
2023/10/06 12:13:47;;;;;;;6.88;1.98;;;17.40;99.00;;;;;;5113091;28;20436;-84
2023/10/06 12:16:14;;;;;;;5.85;1.85;;;17.40;99.10;;;;;;5102402;28;20054;-79
2023/10/06 12:18:43;;;;;;;6.35;1.55;;;17.40;99.80;;;;;;5094181;28;20024;-80
2023/10/06 12:21:13;;;;;;;6.55;2.20;;;17.60;99.60;;;;;;5110167;28;20027;-83
2023/10/06 12:23:40;;;;;;;8.25;1.83;;;17.90;99.50;;;;;;5112526;28;20028;-85
2023/10/06 12:26:05;;;;;;;4.05;1.50;;;18.20;99.40;;;;;;5101176;28;20114;-83
2023/10/06 12:28:31;;;;;;;5.78;2.10;;;18.40;99.10;;;;;;5104625;28;20105;-82
2023/10/06 12:30:57;;;;;;;6.30;1.70;;;18.50;99.00;;;;;;5086436;28;20043;-84
2023/10/06 12:33:23;;;;;;;3.88;2.00;;;18.50;98.50;;;;;;5111522;28;20027;-84
2023/10/06 12:35:52;;;;;;;7.05;2.33;;;18.70;98.30;;;;;;5092305;28;20131;-80
2023/10/06 12:38:18;;;;;;;8.10;2.22;;;18.80;98.10;;;;;;5091049;28;20472;-83
2023/10/06 12:40:46;;;;;;;5.13;1.88;;;19.10;97.80;;;;;;5104410;28;20055;-81
2023/10/06 12:43:13;;;;;;;7.90;2.13;;;19.30;97.00;;;;;;5094502;28;20020;-81
2023/10/06 12:45:38;;;;;;;4.30;1.50;;;19.70;96.50;;;;;;5110842;28;20082;-81
2023/10/06 12:48:04;;;;;;;6.88;1.77;;;20.00;95.30;;;;;;5100984;28;20060;-81
2023/10/06 12:50:31;;;;;;;5.55;1.90;;;20.40;94.50;;;;;;5103818;28;20032;-80
2023/10/06 12:52:56;;;;;;;4.45;1.80;;;20.90;93.50;;;;;;5107450;28;20020;-80
2023/10/06 12:55:24;;;;;;;4.43;1.55;;;21.30;92.70;;;;;;5097124;28;20431;-84
2023/10/06 12:57:51;;;;;;;8.80;1.88;;;21.60;92.30;;;;;;5110596;28;20024;-81
2023/10/06 13:00:19;;;;;;;7.43;1.92;;;21.80;92.00;;;;;;5101455;28;20417;-81
2023/10/06 13:02:47;;;;;;;7.20;1.80;;;21.90;91.90;;;;;;5109104;28;20028;-84
2023/10/06 13:05:16;;;;;;;6.38;2.13;;;21.80;91.90;;;;;;5094198;28;20043;-82
2023/10/06 13:07:51;;;;;;;7.55;1.92;;;21.90;91.70;;;;;;5080598;28;20043;-79
2023/10/06 13:10:22;;;;;;;4.75;1.83;;;21.80;91.90;;;;;;5102901;28;20036;-88